createdAt,value
2022-11-18T00:00:43.348Z,9.50
2022-11-18T00:04:25.172Z,9.30
2022-11-18T00:08:07.077Z,9.50
2022-11-18T00:12:07.307Z,9.50
2022-11-18T00:15:49.118Z,9.40
2022-11-18T00:19:33.559Z,9.40
2022-11-18T00:23:15.392Z,9.30
2022-11-18T00:26:57.242Z,9.40
2022-11-18T00:30:39.068Z,9.20
2022-11-18T00:34:20.924Z,9.30
2022-11-18T00:38:02.803Z,9.20
2022-11-18T00:42:04.096Z,9.30
2022-11-18T00:45:45.837Z,9.10
2022-11-18T00:49:27.739Z,9.30
2022-11-18T00:53:09.542Z,9.20
2022-11-18T00:56:51.263Z,9.40
2022-11-18T01:00:33.055Z,9.20
2022-11-18T01:04:15.023Z,9.30
2022-11-18T01:07:56.783Z,9.10
2022-11-18T01:12:01.867Z,9.10
2022-11-18T01:15:48.053Z,9.30
2022-11-18T01:19:29.959Z,9.20
2022-11-18T01:23:12.613Z,9.20
2022-11-18T01:26:54.324Z,9.10
2022-11-18T01:30:37.681Z,9.00
2022-11-18T01:34:19.446Z,9.00
2022-11-18T01:38:01.174Z,9.20
2022-11-18T01:41:42.928Z,9.00
2022-11-18T01:45:34.675Z,9.10
2022-11-18T01:49:17.172Z,9.00
2022-11-18T01:53:07.901Z,9.10
2022-11-18T01:56:53.858Z,9.10
2022-11-18T02:00:35.780Z,9.10
2022-11-18T02:04:18.024Z,9.10
2022-11-18T02:08:01.756Z,8.90
2022-11-18T02:11:56.192Z,9.10
2022-11-18T02:16:18.206Z,9.10
2022-11-18T02:20:08.879Z,9.00
2022-11-18T02:24:01.803Z,8.90
2022-11-18T02:28:11.190Z,9.00
2022-11-18T02:32:02.011Z,9.00
2022-11-18T02:35:52.443Z,8.90
2022-11-18T02:39:42.177Z,8.80
2022-11-18T02:43:37.730Z,8.90
2022-11-18T02:47:22.223Z,9.00
2022-11-18T02:51:07.075Z,8.90
2022-11-18T02:54:50.547Z,9.00
2022-11-18T02:58:32.263Z,8.80
2022-11-18T03:02:17.380Z,8.80
2022-11-18T03:06:16.704Z,8.80
2022-11-18T03:10:00.042Z,9.00
2022-11-18T03:14:16.180Z,8.80
2022-11-18T03:18:29.351Z,8.90
2022-11-18T03:22:19.699Z,8.80
2022-11-18T03:26:07.538Z,8.80
2022-11-18T03:30:03.332Z,8.80
2022-11-18T03:33:53.006Z,8.80
2022-11-18T03:37:36.863Z,8.80
2022-11-18T03:41:20.689Z,8.90
2022-11-18T03:45:12.581Z,8.90
2022-11-18T03:48:56.723Z,8.90
2022-11-18T03:52:41.540Z,8.90
2022-11-18T03:56:29.039Z,8.80
2022-11-18T04:00:14.355Z,8.60
2022-11-18T04:03:56.161Z,8.70
2022-11-18T04:07:43.601Z,8.60
2022-11-18T04:11:52.267Z,8.50
2022-11-18T04:15:37.782Z,8.60
2022-11-18T04:19:20.586Z,8.80
2022-11-18T04:23:02.615Z,8.60
2022-11-18T04:26:44.411Z,8.70
2022-11-18T04:30:26.210Z,8.60
2022-11-18T04:34:08.061Z,8.70
2022-11-18T04:37:49.957Z,8.80
2022-11-18T04:41:50.247Z,8.50
2022-11-18T04:45:32.133Z,8.50
2022-11-18T04:49:15.271Z,8.70
2022-11-18T04:52:57.159Z,8.70
2022-11-18T04:56:42.877Z,8.70
2022-11-18T05:00:29.408Z,8.50
2022-11-18T05:04:17.003Z,8.70
2022-11-18T05:07:58.734Z,8.50
2022-11-18T05:11:59.533Z,8.70
2022-11-18T05:15:41.274Z,8.50
2022-11-18T05:19:23.354Z,8.70
2022-11-18T05:23:05.139Z,8.60
2022-11-18T05:26:46.956Z,8.40
2022-11-18T05:30:28.721Z,8.40
2022-11-18T05:34:10.671Z,8.50
2022-11-18T05:37:52.406Z,8.60
2022-11-18T05:41:52.699Z,8.60
2022-11-18T05:45:34.444Z,8.40
2022-11-18T05:49:16.625Z,8.50
2022-11-18T05:52:58.751Z,8.40
2022-11-18T05:56:44.827Z,8.50
2022-11-18T06:00:26.987Z,8.40
2022-11-18T06:04:15.567Z,8.30
2022-11-18T06:07:58.363Z,8.40
2022-11-18T06:11:48.590Z,8.40
2022-11-18T06:15:38.546Z,8.60
2022-11-18T06:19:20.736Z,8.30
2022-11-18T06:23:02.638Z,8.30
2022-11-18T06:26:45.650Z,8.40
2022-11-18T06:30:27.448Z,8.30
2022-11-18T06:34:09.179Z,8.30
2022-11-18T06:37:50.946Z,8.20
2022-11-18T06:41:33.602Z,8.10
2022-11-18T06:45:15.472Z,8.10
2022-11-18T06:48:57.722Z,8.20
2022-11-18T06:52:39.581Z,7.90
2022-11-18T06:56:22.697Z,7.80
2022-11-18T07:00:05.265Z,7.90
2022-11-18T07:03:47.491Z,7.70
2022-11-18T07:07:29.321Z,7.50
2022-11-18T07:11:13.386Z,7.40
2022-11-18T07:14:55.132Z,7.30
2022-11-18T07:18:39.213Z,7.40
2022-11-18T07:22:20.943Z,7.30
2022-11-18T07:26:03.442Z,7.20
2022-11-18T07:29:45.155Z,7.00
2022-11-18T07:33:26.871Z,6.90
2022-11-18T07:37:08.616Z,7.10
2022-11-18T07:40:50.536Z,6.90
2022-11-18T07:44:32.324Z,7.00
2022-11-18T07:48:15.209Z,7.00
2022-11-18T07:51:57.021Z,6.90
2022-11-18T07:55:38.743Z,6.80
2022-11-18T07:59:20.795Z,6.90
2022-11-18T08:03:02.759Z,7.10
2022-11-18T08:06:44.547Z,7.00
2022-11-18T08:10:26.374Z,7.00
2022-11-18T08:14:08.122Z,6.90
2022-11-18T08:17:49.914Z,7.00
2022-11-18T08:21:31.666Z,7.00
2022-11-18T08:25:13.432Z,6.90
2022-11-18T08:28:55.647Z,6.80
2022-11-18T08:32:37.474Z,6.90
2022-11-18T08:36:22.907Z,6.90
2022-11-18T08:40:05.176Z,7.00
2022-11-18T08:43:47.069Z,7.20
2022-11-18T08:47:28.843Z,7.10
2022-11-18T08:51:13.939Z,7.00
2022-11-18T08:54:55.700Z,7.20
2022-11-18T08:58:37.484Z,7.20
2022-11-18T09:02:22.179Z,7.40
2022-11-18T09:06:07.054Z,7.50
2022-11-18T09:09:49.015Z,7.50
2022-11-18T09:13:53.640Z,7.70
2022-11-18T09:17:32.488Z,7.70
2022-11-18T09:21:14.581Z,7.90
2022-11-18T09:24:56.402Z,8.10
2022-11-18T09:28:38.375Z,8.50
2022-11-18T09:32:20.105Z,8.60
2022-11-18T09:36:02.165Z,8.90
2022-11-18T09:39:43.917Z,9.50
2022-11-18T09:44:03.096Z,10.50
2022-11-18T09:47:44.905Z,10.90
2022-11-18T09:51:28.862Z,11.90
2022-11-18T09:55:16.701Z,12.50
2022-11-18T09:58:58.481Z,12.30
2022-11-18T10:03:01.870Z,12.20
2022-11-18T10:06:45.027Z,12.20
2022-11-18T10:10:37.201Z,12.10
2022-11-18T10:14:47.962Z,12.20
2022-11-18T10:18:59.583Z,12.60
2022-11-18T10:23:22.644Z,13.00
2022-11-18T10:27:12.742Z,13.80
2022-11-18T10:30:54.834Z,14.60
2022-11-18T10:34:48.092Z,15.60
2022-11-18T10:38:29.837Z,16.20
2022-11-18T10:42:26.596Z,16.70
2022-11-18T10:46:24.983Z,16.30
2022-11-18T10:50:31.315Z,15.70
2022-11-18T10:54:12.998Z,15.40
2022-11-18T10:58:16.672Z,15.60
2022-11-18T11:02:09.671Z,15.80
2022-11-18T11:06:15.727Z,15.70
2022-11-18T11:10:06.415Z,15.00
2022-11-18T11:13:48.188Z,14.50
2022-11-18T11:17:37.823Z,14.30
2022-11-18T11:21:25.358Z,14.10
2022-11-18T11:25:26.958Z,13.90
2022-11-18T11:29:45.709Z,13.70
2022-11-18T11:33:56.575Z,13.60
2022-11-18T11:37:53.595Z,13.70
2022-11-18T11:41:40.964Z,13.70
2022-11-18T11:45:22.657Z,13.90
2022-11-18T11:49:17.094Z,14.10
2022-11-18T11:53:20.666Z,14.30
2022-11-18T11:57:27.103Z,14.30
2022-11-18T12:01:43.117Z,14.10
2022-11-18T12:05:36.099Z,14.20
2022-11-18T12:09:56.925Z,14.30
2022-11-18T12:13:47.809Z,14.40
2022-11-18T12:17:40.399Z,14.20
2022-11-18T12:21:44.649Z,14.20
2022-11-18T12:25:53.035Z,14.20
2022-11-18T12:29:50.259Z,14.20
2022-11-18T12:33:32.041Z,14.00
2022-11-18T12:37:44.040Z,13.90
2022-11-18T12:42:01.002Z,13.80
2022-11-18T12:45:45.981Z,13.70
2022-11-18T12:49:27.630Z,13.80
2022-11-18T12:53:09.458Z,13.50
2022-11-18T12:56:52.139Z,13.60
2022-11-18T13:00:52.491Z,13.40
2022-11-18T13:04:34.645Z,13.40
2022-11-18T13:08:18.146Z,13.30
2022-11-18T13:12:04.844Z,13.20
2022-11-18T13:16:08.953Z,13.40
2022-11-18T13:19:56.781Z,13.40
2022-11-18T13:23:59.282Z,13.30
2022-11-18T13:27:52.895Z,13.50
2022-11-18T13:32:00.839Z,13.40
2022-11-18T13:35:42.647Z,13.40
2022-11-18T13:39:26.201Z,13.40
2022-11-18T13:43:11.315Z,13.30
2022-11-18T13:47:03.267Z,13.50
2022-11-18T13:50:52.710Z,13.50
2022-11-18T13:54:34.665Z,13.50
2022-11-18T13:58:19.176Z,13.50
2022-11-18T14:02:01.087Z,13.50
2022-11-18T14:05:42.809Z,13.60
2022-11-18T14:09:27.602Z,13.60
2022-11-18T14:13:24.101Z,13.50
2022-11-18T14:17:17.805Z,13.40
2022-11-18T14:21:01.358Z,13.40
2022-11-18T14:24:44.256Z,13.50
2022-11-18T14:28:29.176Z,14.00
2022-11-18T14:32:17.082Z,14.90
2022-11-18T14:35:59.842Z,15.60
2022-11-18T14:39:42.067Z,16.10
2022-11-18T14:43:24.465Z,16.40
2022-11-18T14:47:27.009Z,16.60
2022-11-18T14:51:16.223Z,16.70
2022-11-18T14:54:58.206Z,16.20
2022-11-18T14:58:39.955Z,15.50
2022-11-18T15:02:21.702Z,14.80
2022-11-18T15:06:03.477Z,14.20
2022-11-18T15:09:45.572Z,13.80
2022-11-18T15:13:27.390Z,13.30
2022-11-18T15:17:12.532Z,13.00
2022-11-18T15:20:54.251Z,12.80
2022-11-18T15:24:35.961Z,12.70
2022-11-18T15:28:17.667Z,12.60
2022-11-18T15:32:00.150Z,12.60
2022-11-18T15:35:41.950Z,12.30
2022-11-18T15:39:23.666Z,12.30
2022-11-18T15:43:05.385Z,12.10
2022-11-18T15:46:48.088Z,12.10
2022-11-18T15:50:29.947Z,12.20
2022-11-18T15:54:11.804Z,12.20
2022-11-18T15:57:53.524Z,12.20
2022-11-18T16:01:37.632Z,12.20
2022-11-18T16:05:19.481Z,12.00
2022-11-18T16:09:01.641Z,11.80
2022-11-18T16:12:49.223Z,11.60
2022-11-18T16:16:31.671Z,11.50
2022-11-18T16:20:13.444Z,11.30
2022-11-18T16:23:59.661Z,11.10
2022-11-18T16:27:41.406Z,11.10
2022-11-18T16:31:41.637Z,10.90
2022-11-18T16:35:23.403Z,10.80
2022-11-18T16:39:13.269Z,10.70
2022-11-18T16:42:54.978Z,10.60
2022-11-18T16:46:38.808Z,10.50
2022-11-18T16:50:20.577Z,10.40
2022-11-18T16:54:05.479Z,10.30
2022-11-18T16:57:47.177Z,10.20
2022-11-18T17:01:30.328Z,10.20
2022-11-18T17:05:13.410Z,10.10
2022-11-18T17:08:55.118Z,10.00
2022-11-18T17:12:36.818Z,10.00
2022-11-18T17:16:20.492Z,9.80
2022-11-18T17:20:03.235Z,9.70
2022-11-18T17:23:45.850Z,9.70
2022-11-18T17:27:27.599Z,9.70
2022-11-18T17:31:14.610Z,9.60
2022-11-18T17:34:56.330Z,9.60
2022-11-18T17:38:40.504Z,9.50
2022-11-18T17:42:25.658Z,9.40
2022-11-18T17:46:07.363Z,9.40
2022-11-18T17:49:49.154Z,9.30
2022-11-18T17:53:30.923Z,9.30
2022-11-18T17:57:12.709Z,9.20
2022-11-18T18:00:54.466Z,9.20
2022-11-18T18:04:36.318Z,9.10
2022-11-18T18:08:18.046Z,9.00
2022-11-18T18:12:00.825Z,9.10
2022-11-18T18:15:42.676Z,9.00
2022-11-18T18:19:24.746Z,8.90
2022-11-18T18:23:06.482Z,8.90
2022-11-18T18:26:48.961Z,8.80
2022-11-18T18:30:30.677Z,8.70
2022-11-18T18:34:12.475Z,8.70
2022-11-18T18:37:54.222Z,8.60
2022-11-18T18:41:36.152Z,8.50
2022-11-18T18:45:36.360Z,8.50
2022-11-18T18:49:20.625Z,8.50
2022-11-18T18:53:02.466Z,8.40
2022-11-18T18:56:44.292Z,8.30
2022-11-18T19:00:26.046Z,8.40
2022-11-18T19:04:08.326Z,8.20
2022-11-18T19:07:50.145Z,8.20
2022-11-18T19:11:50.761Z,8.20
2022-11-18T19:15:35.311Z,8.00
2022-11-18T19:19:43.873Z,8.00
2022-11-18T19:23:26.020Z,8.00
2022-11-18T19:27:07.956Z,7.90
2022-11-18T19:30:49.721Z,7.90
2022-11-18T19:34:31.528Z,7.80
2022-11-18T19:38:13.305Z,7.70
2022-11-18T19:41:55.016Z,7.70
2022-11-18T19:45:36.815Z,7.60
2022-11-18T19:49:18.869Z,7.60
2022-11-18T19:53:21.006Z,7.60
2022-11-18T19:57:04.010Z,7.60
2022-11-18T20:00:45.954Z,7.50
2022-11-18T20:04:27.689Z,7.40
2022-11-18T20:08:09.422Z,7.30
2022-11-18T20:11:51.621Z,7.30
2022-11-18T20:15:33.344Z,7.20
2022-11-18T20:19:17.255Z,7.10
2022-11-18T20:22:59.190Z,7.10
2022-11-18T20:26:41.475Z,7.00
2022-11-18T20:30:23.434Z,6.90
2022-11-18T20:34:05.562Z,6.90
2022-11-18T20:37:47.269Z,6.80
2022-11-18T20:41:30.606Z,6.80
2022-11-18T20:45:12.469Z,6.60
2022-11-18T20:48:54.872Z,6.50
2022-11-18T20:52:36.722Z,6.40
2022-11-18T20:56:20.577Z,6.40
2022-11-18T21:00:02.367Z,6.30
2022-11-18T21:03:49.651Z,6.20
2022-11-18T21:07:34.340Z,6.20
2022-11-18T21:11:17.182Z,6.00
2022-11-18T21:14:58.884Z,5.90
2022-11-18T21:18:40.633Z,5.90
2022-11-18T21:22:22.361Z,5.70
2022-11-18T21:26:06.211Z,5.70
2022-11-18T21:29:49.997Z,5.70
2022-11-18T21:33:31.732Z,5.60
2022-11-18T21:37:13.488Z,5.50
2022-11-18T21:40:55.281Z,5.60
2022-11-18T21:44:37.001Z,5.50
2022-11-18T21:48:18.929Z,5.40
2022-11-18T21:52:00.638Z,5.50
2022-11-18T21:55:42.335Z,5.50
2022-11-18T21:59:24.164Z,5.50
2022-11-18T22:03:05.913Z,5.60
2022-11-18T22:06:47.613Z,5.60
2022-11-18T22:10:29.393Z,5.60
2022-11-18T22:14:11.113Z,5.70
2022-11-18T22:17:52.830Z,5.70
2022-11-18T22:21:34.714Z,5.80
2022-11-18T22:25:16.524Z,5.70
2022-11-18T22:28:58.586Z,5.70
2022-11-18T22:32:40.321Z,5.70
2022-11-18T22:36:24.990Z,5.70
2022-11-18T22:40:07.493Z,5.60
2022-11-18T22:43:49.257Z,5.50
2022-11-18T22:47:31.022Z,5.50
2022-11-18T22:51:12.778Z,5.50
2022-11-18T22:54:54.502Z,5.40
2022-11-18T22:58:36.611Z,5.30
2022-11-18T23:02:18.429Z,5.20
2022-11-18T23:06:01.098Z,5.10
2022-11-18T23:09:42.837Z,5.00
2022-11-18T23:13:43.081Z,5.10
2022-11-18T23:17:24.807Z,5.00
2022-11-18T23:21:06.846Z,5.00
2022-11-18T23:24:48.621Z,4.90
2022-11-18T23:28:30.708Z,4.90
2022-11-18T23:32:12.497Z,4.90
2022-11-18T23:35:54.229Z,4.90
2022-11-18T23:39:37.275Z,4.90
2022-11-18T23:43:19.047Z,4.80
2022-11-18T23:47:00.862Z,4.80
2022-11-18T23:50:42.772Z,4.90
2022-11-18T23:54:24.528Z,4.70
2022-11-18T23:58:06.234Z,4.70
